Alamo, Nevada Weather observations

Data are for observation ending at time listed.
 Day   Time    Ave.   Ave.  Ave.  Vector   Max.   Stn.    Total    Solar   Ave.  
  of    of     Air    Rel.  Wind   Wind    Wind   Baro.  Precip.   Rad.    Soil  
Year   Day     Temp.  Hum.  Speed  Dir.    Gust   Pres.                    Temp. 
2014   (PST)    F      %     mph   deg.    mph     mb.     in.     W/m2     F   
------------------------------------------------------------------------------
 244   12:30   94.4    13    1.2   185      4.2   893.5    0.00     944    79.0
 244   12:40   95.5    13    1.3   192      4.0   893.3    0.00     939    80.2
 244   12:50   95.2    14    2.4   193      5.4   892.9    0.00     924    81.3
 244   13:00   95.1    13    2.6   193      6.0   892.6    0.00     914    82.4
 244   13:10   95.6    13    1.8   198      5.0   892.5    0.00     905    83.3
 244   13:20   95.8    14    2.9   194      6.7   892.3    0.00     892    84.2
 244   13:30   96.0    12    1.5   185      5.5   892.2    0.00     876    85.0
 244   13:40   96.5    12    1.3   111      3.8   892.2    0.00     863    85.7
 244   13:50   97.0    12    1.4   168      5.5   892.1    0.00     844    86.2
 244   14:00   96.7    12    1.8   153      8.5   892.1    0.00     824    86.8
 244   14:10   96.9    12    1.2   168      4.6   892.1    0.00     803    87.3
 244   14:20   96.7    12    2.7   169      7.4   892.0    0.00     776    87.8
 244   14:30   96.2    12    1.8   135      6.2   891.9    0.00     754    88.1
 244   14:40   97.0    12    1.8   182      7.3   891.8    0.00     724    88.3
 244   14:50   96.6    12    3.0   181      8.1   891.8    0.00     696    88.6
 244   15:00   95.6    13    3.1   189      8.7   891.8    0.00     665    88.8
 244   15:10   95.9    14    2.3   193      5.9   891.8    0.00     636    88.9
 244   15:20   96.1    14    1.6   181      6.7   891.8    0.00     605    88.9
 244   15:30   96.5    12    1.4   167      6.6   891.8    0.00     574    89.0
 244   15:40   96.6    12    1.9   177      8.6   891.7    0.00     539    88.8
 244   15:50   96.1    12    1.3   157      5.0   891.7    0.00     507    88.5
 244   16:00   95.9    12    1.6   172      5.9   891.7    0.00     472    88.2
 244   16:10   94.0    14    3.1   183      7.7   891.6    0.00     434    87.7
 244   16:20   93.4    14    2.6   183      5.3   891.6    0.00     400    87.0
 244   16:30   93.3    14    2.0   183      5.5   891.6    0.00     363    86.4
 244   16:40   93.2    14    2.5   186      5.7   891.6    0.00     326    85.8
 244   16:50   93.2    13    1.7   183      8.5   891.6    0.00     290    85.3
 244   17:00   93.6    13    1.9   176      6.9   891.7    0.00     252    84.8
 244   17:10   92.8    14    1.8   184      4.3   891.7    0.00     216    84.3
 244   17:20   91.2    16    2.4   183      5.8   891.7    0.00     181    83.8
 244   17:30   90.4    16    1.7   184      5.5   891.7    0.00     145    83.4
 244   17:40   88.8    17    1.9   185      4.5   891.7    0.00     109    83.0
 244   17:50   88.5    16    1.4   179      3.7   891.7    0.00      61    82.6
 244   18:00   88.4    16    1.6   181      5.3   891.7    0.00      13    82.2
 244   18:10   87.7    17    1.9   203      5.3   891.8    0.00       9    81.9
 244   18:20   86.7    18    1.3   198      3.1   891.9    0.00       3    81.4
 244   18:30   85.3    20    0.6   198      1.9   891.9    0.00       0    81.1
 244   18:40   84.0    21    0.6   216      2.2   892.0    0.00       0    80.7
 244   18:50   82.5    22    0.2   225      0.9   892.1    0.00       0    80.4
 244   19:00   81.1    23    0.0   226      0.7   892.3    0.00       0    80.1
 244   19:10   80.9    23    0.4   198      1.7   892.5    0.00       0    79.8
 244   19:20   80.7    24    0.3   215      1.5   892.7    0.00       0    79.5
 244   19:30   79.1    26    0.0    60      0.7   892.5    0.00       0    79.2
 244   19:40   77.8    28    0.0    68      0.4   892.5    0.00       0    78.9
 244   19:50   77.2    28    0.0     0      0.0   892.6    0.00       0    78.6
 244   20:00   76.4    28    0.0     0      0.0   892.7    0.00       0    78.3
 244   20:10   75.7    29    0.0     0      0.0   892.8    0.00       0    78.1
 244   20:20   75.0    30    0.1    73      0.7   892.9    0.00       0    77.8
 244   20:30   74.7    31    0.6    10      1.3   893.0    0.00       0    77.6
 244   20:40   73.3    35    1.2     8      2.0   893.0    0.00       0    77.3
 244   20:50   71.7    38    1.0     9      1.8   893.1    0.00       0    77.0
 244   21:00   70.8    40    1.1    45      2.3   893.1    0.00       0    76.8
 244   21:10   70.0    41    0.8    32      1.5   893.2    0.00       0    76.5
 244   21:20   70.0    40    1.1    36      2.9   893.2    0.00       0    76.2
 244   21:30   69.7    40    0.8    28      3.1   893.4    0.00       0    76.0
 244   21:40   69.9    39    1.9    37      3.4   893.5    0.00       0    75.8
 244   21:50   69.7    39    1.3   335      2.9   893.5    0.00       0    75.5
 244   22:00   69.0    40    0.9    41      1.8   893.4    0.00       0    75.3
 244   22:10   68.2    41    1.1    21      2.5   893.5    0.00       0    75.1
 244   22:20   68.5    39    1.0   340      2.0   893.7    0.00       0    74.9
 244   22:30   68.5    38    0.9     3      2.2   893.7    0.00       0    74.7
 244   22:40   68.4    37    1.1    48      2.1   893.8    0.00       0    74.5
 244   22:50   67.7    41    0.6    66      2.7   893.8    0.00       0    74.3
 244   23:00   67.0    41    0.8     3      2.6   893.7    0.00       0    74.1
 244   23:10   66.8    41    1.7    24      3.4   893.7    0.00       0    73.9
 244   23:20   65.9    44    1.1    40      2.9   893.6    0.00       0    73.7
 244   23:30   65.7    44    0.7   350      1.7   893.7    0.00       0    73.5
 244   23:40   65.2    45    1.3    39      2.4   893.7    0.00       0    73.3
 244   23:50   64.9    45    1.1    41      1.7   893.6    0.00       0    73.1
 245    0:00   64.9    46    1.0    52      2.0   893.9    0.00       0    73.0
 245    0:10   64.7    46    1.0   346      2.0   893.7    0.00       0    72.8
 245    0:20   64.2    46    0.3     4      1.2   893.5    0.00       0    72.6
 245    0:30   63.6    50    0.0     0      0.0   893.6    0.00       0    72.5
 245    0:40   62.9    51    0.8    68      2.1   893.5    0.00       0    72.3
 245    0:50   62.9    49    0.9    35      2.5   893.3    0.00       0    72.2
 245    1:00   63.7    45    2.1    61      3.6   893.4    0.00       0    72.0
 245    1:10   64.2    44    0.8    26      1.8   893.5    0.00       0    71.9
 245    1:20   63.9    45    0.2   337      1.3   893.6    0.00       0    71.7
 245    1:30   62.6    49    0.5    51      1.9   893.8    0.00       0    71.6
 245    1:40   61.7    51    0.3    31      1.2   893.8    0.00       0    71.4
 245    1:50   61.2    52    0.2   324      1.3   893.7    0.00       0    71.3
 245    2:00   60.8    52    0.8   358      2.0   893.6    0.00       0    71.2
 245    2:10   60.8    51    0.5    28      1.4   893.7    0.00       0    71.0
 245    2:20   60.8    51    0.7     5      1.8   893.6    0.00       0    70.8
 245    2:30   60.4    52    1.2    11      1.9   893.5    0.00       0    70.7
 245    2:40   60.0    53    1.1    17      2.1   893.5    0.00       0    70.5
 245    2:50   60.4    51    1.1    22      3.7   893.6    0.00       0    70.4
 245    3:00   60.0    53    0.4   354      1.1   893.7    0.00       0    70.2
 245    3:10   59.4    53    0.7    43      1.5   893.7    0.00       0    70.1
 245    3:20   59.1    54    0.6     4      1.3   893.8    0.00       0    69.9
 245    3:30   59.3    53    0.5   346      1.6   893.8    0.00       0    69.8
 245    3:40   58.9    55    0.2   347      0.9   893.9    0.00       0    69.7
 245    3:50   58.6    54    0.2    16      1.2   893.9    0.00       0    69.5
 245    4:00   58.5    53    1.0    19      2.0   894.2    0.00       0    69.4
 245    4:10   58.2    54    0.5   341      2.2   894.2    0.00       0    69.3
 245    4:20   58.1    56    0.6   324      1.5   894.4    0.00       0    69.1
 245    4:30   57.8    56    0.1    19      0.9   894.8    0.00       0    69.0
 245    4:40   57.2    57    0.9    21      1.5   894.9    0.00       0    68.9
 245    4:50   56.9    58    1.3    28      2.2   895.3    0.00       0    68.8
 245    5:00   56.7    59    0.6    30      1.7   895.9    0.00       0    68.6
 245    5:10   56.5    59    0.5     6      1.2   896.1    0.00       0    68.5
 245    5:20   56.4    60    0.1    52      1.5   895.9    0.00       0    68.4
 245    5:30   55.9    62    0.9    23      1.7   896.2    0.00       7    68.3
 245    5:40   55.9    60    0.6    27      1.4   896.4    0.00      13    68.1
 245    5:50   56.6    58    0.9   322      1.8   896.6    0.00      13    68.0
 245    6:00   57.0    59    0.2   342      0.9   896.3    0.00      18    67.9
 245    6:10   59.1    55    0.6    48      1.3   896.3    0.00      65    67.9
 245    6:20   61.6    48    1.1    18      2.0   896.2    0.00      83    67.8
 245    6:30   62.1    47    1.5    18      2.4   896.2    0.00      34    67.7
 245    6:40   63.1    46    1.5    27      2.2   896.1    0.00      64    67.8
 245    6:50   64.7    45    2.1    18      3.7   896.1    0.00     103    68.0
 245    7:00   65.6    44    2.0    20      3.2   896.1    0.00      48    68.3
 245    7:10   66.5    42    2.7    12      4.8   896.2    0.00      55    68.5
 245    7:20   67.7    40    2.7    15      5.0   896.2    0.00      44    68.6
 245    7:30   69.6    37    2.1    11      3.5   896.1    0.00      40    68.6
 245    7:40   71.3    36    2.5     6      5.1   896.1    0.00      36    68.6
 245    7:50   72.6    36    2.5    12      4.5   896.0    0.00      44    68.6
 245    8:00   74.1    32    1.6     2      4.1   896.0    0.00      39    68.7
 245    8:10   75.2    31    1.5    19      2.6   896.0    0.00      55    68.7
 245    8:20   76.6    30    1.4    16      2.9   895.9    0.00      36    68.8
 245    8:30   78.0    28    1.3    41      2.6   895.9    0.00      36    68.8
 245    8:40   79.1    26    1.2    36      2.5   895.8    0.00      38    68.9
 245    8:50   79.9    25    0.7   209      2.2   895.7    0.00      37    69.0
 245    9:00   80.8    25    0.5   219      1.4   895.5    0.00      37    69.0
 245    9:10   82.1    23    1.3   207      4.5   895.5    0.00      37    69.1
 245    9:20   83.3    22    2.6   198      6.5   895.7    0.00      60    69.2
 245    9:30   84.1    22    2.8   193      6.6   895.7    0.00      58    69.3
 245    9:40   84.9    21    2.8   185      8.6   895.2    0.00      43    69.5
 245    9:50   85.6    22    3.6   184      8.1   894.8    0.00      41    69.6
 245   10:00   86.3    21    2.5   180      8.4   894.7    0.00      40    69.8
 245   10:10   87.3    20    3.0   187      8.3   894.1    0.00      56    70.0
 245   10:20   88.3    19    1.9   167      9.1   894.1    0.00      70    70.1
 245   10:30   88.8    19    2.1   185      7.6   894.0    0.00      64    70.4
 245   10:40   88.9    19    2.7   184     12.3   894.0    0.00      58    70.6
 245   10:50   89.6    18    1.6   173      7.3   894.2    0.00     173    70.9
 245   11:00   90.0    18    2.2   168      8.6   893.8    0.00     148    71.3
 245   11:10   90.2    16    2.0   167      6.6   893.6    0.00     134    72.2
 245   11:20   90.6    16    2.0   167      6.8   893.4    0.00     131    73.1
 245   11:30   91.2    16    2.2   172      7.2   893.3    0.00     847    73.7
 245   11:40   91.3    18    3.1   186      8.1   893.1    0.00     947    74.2
 245   11:50   92.3    16    3.0   181      8.8   893.2    0.00     951    74.7
 245   12:00   92.8    16    2.7   181      9.1   893.2    0.00     952    75.5
 245   12:10   93.5    16    2.2   181      8.3   893.1    0.00     953    76.7
 245   12:20   93.7    16    2.4   176      7.4   893.0    0.00     951    78.1

Return to Alamo, Nevada graphs page.


Western Regional Climate Center,wrcc@dri.edu